Time;durP1;ratioP1;P1;durP2;ratioP2;P2;SDS_P1;SDS_P2;PMS_P1;PMS_P2;Temp;Humidity;BMP_temperature;BMP_pressure;BME280_temperature;BME280_humidity;BME280_pressure;Samples;Min_cycle;Max_cycle;Signal;HPM_P1;HPM_P2
2023/11/16 00:00:12;;;;;;;0.50;0.50;;;;;;;6.92;98.45;97158.81;29395;202;63009;-56
2023/11/16 00:00:43;;;;;;;0.50;0.50;;;;;;;6.91;98.51;97160.72;29395;247;63010;-56
2023/11/16 00:01:17;;;;;;;0.57;0.57;;;;;;;6.91;98.39;97162.59;29394;217;64013;-55
2023/11/16 00:01:49;;;;;;;0.50;0.50;;;;;;;6.88;98.66;97168.50;29395;244;63005;-55
2023/11/16 00:02:21;;;;;;;0.50;0.50;;;;;;;6.86;99.12;97160.69;29395;318;63026;-56
2023/11/16 00:02:52;;;;;;;0.50;0.50;;;;;;;6.84;98.82;97167.41;29395;261;63012;-55
2023/11/16 00:03:23;;;;;;;0.50;0.50;;;;;;;6.87;99.35;97158.78;29395;286;63009;-56
2023/11/16 00:03:54;;;;;;;0.50;0.50;;;;;;;6.88;99.35;97168.50;29395;222;63004;-55
2023/11/16 00:04:26;;;;;;;0.50;0.50;;;;;;;6.88;99.35;97171.22;29395;451;63009;-56
2023/11/16 00:04:58;;;;;;;0.50;0.50;;;;;;;6.87;99.01;97166.88;29395;221;63004;-56
2023/11/16 00:05:35;;;;;;;0.50;0.50;;;;;;;6.88;99.29;97165.81;29395;236;63008;-56
2023/11/16 00:06:10;;;;;;;0.50;0.50;;;;;;;6.88;98.92;97165.81;29395;202;63016;-55
2023/11/16 00:06:43;;;;;;;0.50;0.50;;;;;;;6.86;99.21;97170.66;29394;268;64014;-56
2023/11/16 00:07:15;;;;;;;0.50;0.50;;;;;;;6.85;99.15;97166.34;29395;208;63005;-55
2023/11/16 00:07:47;;;;;;;0.50;0.50;;;;;;;6.87;99.20;97169.59;29394;202;64014;-56
2023/11/16 00:08:19;;;;;;;0.50;0.50;;;;;;;6.84;99.17;97162.00;29395;214;63018;-55
2023/11/16 00:08:51;;;;;;;0.52;0.52;;;;;;;6.84;99.26;97162.00;29395;250;63024;-56
2023/11/16 00:09:23;;;;;;;0.50;0.50;;;;;;;6.82;99.19;97161.47;29395;231;63005;-56
2023/11/16 00:09:54;;;;;;;0.50;0.50;;;;;;;6.80;99.61;97163.59;29395;212;63009;-56
2023/11/16 00:10:25;;;;;;;0.50;0.50;;;;;;;6.79;99.42;97162.78;29394;206;64009;-56
2023/11/16 00:11:00;;;;;;;0.50;0.50;;;;;;;6.78;99.83;97157.66;29395;343;63009;-56
2023/11/16 00:11:31;;;;;;;0.50;0.50;;;;;;;6.76;100.00;97159.81;29395;255;63004;-55
2023/11/16 00:12:03;;;;;;;0.50;0.50;;;;;;;6.76;100.00;97159.81;29395;256;63009;-56
2023/11/16 00:12:35;;;;;;;0.50;0.50;;;;;;;6.73;100.00;97153.88;29395;328;63004;-55
2023/11/16 00:13:06;;;;;;;0.50;0.50;;;;;;;6.72;100.00;97149.53;29395;238;63008;-56
2023/11/16 00:13:37;;;;;;;0.50;0.50;;;;;;;6.72;100.00;97146.03;29395;239;63004;-56
2023/11/16 00:14:10;;;;;;;0.50;0.50;;;;;;;6.71;100.00;97152.50;29395;207;63009;-55
2023/11/16 00:14:42;;;;;;;0.50;0.50;;;;;;;6.72;100.00;97148.72;29395;256;63005;-55
2023/11/16 00:15:15;;;;;;;0.50;0.50;;;;;;;6.72;100.00;97154.94;29395;270;63009;-56
2023/11/16 00:15:46;;;;;;;0.50;0.50;;;;;;;6.72;100.00;97146.84;29394;208;64009;-56
2023/11/16 00:16:19;;;;;;;0.50;0.50;;;;;;;6.72;100.00;97148.72;29395;239;63009;-55
2023/11/16 00:16:50;;;;;;;0.60;0.60;;;;;;;6.72;100.00;97149.53;29395;230;63005;-63
2023/11/16 00:17:22;;;;;;;0.50;0.50;;;;;;;6.72;100.00;97149.53;29394;216;63999;-56
2023/11/16 00:17:53;;;;;;;0.50;0.50;;;;;;;6.70;100.00;97150.87;29395;217;63004;-56
2023/11/16 00:18:24;;;;;;;0.50;0.50;;;;;;;6.69;100.00;97150.06;29395;233;63009;-57
2023/11/16 00:18:55;;;;;;;0.50;0.50;;;;;;;6.69;100.00;97143.84;29395;222;63004;-56
2023/11/16 00:19:28;;;;;;;0.50;0.50;;;;;;;6.69;100.00;97155.47;29395;197;63009;-55
2023/11/16 00:20:00;;;;;;;0.50;0.50;;;;;;;6.69;100.00;97151.94;29395;234;63004;-56
2023/11/16 00:20:36;;;;;;;0.50;0.50;;;;;;;6.71;100.00;97147.09;29395;296;63008;-56
2023/11/16 00:21:07;;;;;;;0.50;0.50;;;;;;;6.70;100.00;97149.00;29394;335;64008;-56
2023/11/16 00:21:38;;;;;;;0.50;0.50;;;;;;;6.70;100.00;97148.19;29394;197;64014;-57
2023/11/16 00:22:10;;;;;;;0.50;0.50;;;;;;;6.70;100.00;97138.19;29395;348;63005;-55
2023/11/16 00:22:42;;;;;;;0.50;0.50;;;;;;;6.69;100.00;97133.88;29395;202;63021;-55
2023/11/16 00:23:14;;;;;;;0.50;0.50;;;;;;;6.69;100.00;97143.84;29395;214;63014;-56
2023/11/16 00:23:45;;;;;;;0.50;0.50;;;;;;;6.68;100.00;97137.66;29395;197;63009;-56
2023/11/16 00:24:17;;;;;;;0.50;0.50;;;;;;;6.71;100.00;97142.53;29395;197;63005;-55
2023/11/16 00:24:49;;;;;;;0.50;0.50;;;;;;;6.70;100.00;97134.69;29395;197;63009;-65
2023/11/16 00:25:20;;;;;;;0.50;0.50;;;;;;;6.70;100.00;97145.47;29395;257;63005;-55
2023/11/16 00:25:51;;;;;;;0.60;0.60;;;;;;;6.70;100.00;97145.47;29395;316;63009;-55
2023/11/16 00:26:23;;;;;;;0.50;0.50;;;;;;;6.69;100.00;97144.66;29394;216;64009;-56
2023/11/16 00:26:55;;;;;;;0.50;0.50;;;;;;;6.68;100.00;97153.84;29395;239;63009;-55
2023/11/16 00:27:26;;;;;;;0.50;0.50;;;;;;;6.67;100.00;97143.31;29395;250;63014;-56
2023/11/16 00:27:59;;;;;;;0.50;0.50;;;;;;;6.68;100.00;97153.03;29394;314;64013;-55
2023/11/16 00:28:30;;;;;;;0.50;0.50;;;;;;;6.67;100.00;97151.41;29395;333;63004;-56
2023/11/16 00:29:01;;;;;;;0.50;0.50;;;;;;;6.67;100.00;97146.00;29395;235;63009;-56
2023/11/16 00:29:33;;;;;;;0.50;0.50;;;;;;;6.65;100.00;97143.56;29395;234;63005;-56
2023/11/16 00:30:05;;;;;;;0.50;0.50;;;;;;;6.65;100.00;97148.97;29395;240;63009;-56
2023/11/16 00:30:36;;;;;;;0.50;0.50;;;;;;;6.64;100.00;97143.81;29395;254;63005;-56
2023/11/16 00:31:08;;;;;;;0.50;0.50;;;;;;;6.63;100.00;97142.19;29395;241;63009;-55
2023/11/16 00:31:39;;;;;;;0.50;0.50;;;;;;;6.62;100.00;97149.47;29395;197;63005;-56
2023/11/16 00:32:10;;;;;;;0.50;0.50;;;;;;;6.62;100.00;97154.88;29394;206;64013;-55
2023/11/16 00:32:42;;;;;;;0.50;0.50;;;;;;;6.64;100.00;97154.59;29395;205;63005;-56
2023/11/16 00:33:13;;;;;;;0.50;0.50;;;;;;;6.64;100.00;97152.72;29395;228;63023;-56
2023/11/16 00:33:45;;;;;;;0.50;0.50;;;;;;;6.65;100.00;97148.97;29394;219;64009;-57
2023/11/16 00:34:17;;;;;;;0.50;0.50;;;;;;;6.65;100.00;97157.03;29395;202;63024;-56
2023/11/16 00:34:48;;;;;;;0.50;0.50;;;;;;;6.64;100.00;97155.41;29395;228;63011;-56
2023/11/16 00:35:20;;;;;;;0.50;0.50;;;;;;;6.64;100.00;97151.91;29394;226;64013;-55
2023/11/16 00:35:55;;;;;;;0.50;0.50;;;;;;;6.64;100.00;97147.34;29395;199;63004;-56
2023/11/16 00:36:26;;;;;;;0.55;0.55;;;;;;;6.64;100.00;97141.94;29395;363;63009;-55
2023/11/16 00:36:58;;;;;;;0.50;0.50;;;;;;;6.63;100.00;97143.00;29395;381;63005;-56
2023/11/16 00:37:29;;;;;;;0.50;0.50;;;;;;;6.63;100.00;97156.50;29395;202;63009;-58
2023/11/16 00:38:01;;;;;;;0.50;0.50;;;;;;;6.64;100.00;97152.72;29394;398;64009;-55
2023/11/16 00:38:35;;;;;;;0.50;0.50;;;;;;;6.64;100.00;97152.72;29395;263;63009;-55
2023/11/16 00:39:08;;;;;;;0.60;0.60;;;;;;;6.65;100.00;97153.53;29394;456;64009;-56
2023/11/16 00:39:39;;;;;;;0.50;0.50;;;;;;;6.64;100.00;97155.41;29395;354;63009;-55
2023/11/16 00:40:13;;;;;;;0.50;0.50;;;;;;;6.64;100.00;97155.41;29395;199;63005;-55
2023/11/16 00:40:44;;;;;;;0.50;0.50;;;;;;;6.63;100.00;97151.09;29395;486;63009;-56
2023/11/16 00:41:16;;;;;;;0.50;0.50;;;;;;;6.63;100.00;97156.50;29395;392;63004;-56
2023/11/16 00:41:48;;;;;;;0.50;0.50;;;;;;;6.64;100.00;97157.31;29395;345;63009;-55
2023/11/16 00:42:22;;;;;;;0.50;0.50;;;;;;;6.65;100.00;97157.03;29395;227;63004;-57
2023/11/16 00:42:54;;;;;;;0.50;0.50;;;;;;;6.69;100.00;97154.62;29395;347;63009;-56
2023/11/16 00:43:27;;;;;;;0.50;0.50;;;;;;;6.70;100.00;97159.78;29395;226;63004;-55
2023/11/16 00:44:01;;;;;;;0.50;0.50;;;;;;;6.71;100.00;97158.69;29394;261;64014;-57
2023/11/16 00:44:33;;;;;;;0.50;0.50;;;;;;;6.70;100.00;97157.09;29394;221;64009;-56
2023/11/16 00:45:06;;;;;;;0.50;0.50;;;;;;;6.70;100.00;97146.28;29395;245;63009;-55
2023/11/16 00:45:37;;;;;;;0.60;0.60;;;;;;;6.71;100.00;97157.87;29395;270;63005;-56
2023/11/16 00:46:11;;;;;;;0.50;0.50;;;;;;;6.73;100.00;97153.88;29395;231;63019;-56
2023/11/16 00:46:43;;;;;;;0.50;0.50;;;;;;;6.80;100.00;97153.62;29394;234;64009;-56
2023/11/16 00:47:18;;;;;;;0.50;0.50;;;;;;;6.82;100.00;97159.56;29395;209;63009;-55
2023/11/16 00:47:49;;;;;;;0.50;0.50;;;;;;;6.86;99.39;97159.88;29395;220;63004;-55
2023/11/16 00:48:21;;;;;;;0.50;0.50;;;;;;;6.93;99.17;97155.06;29395;225;63009;-56
2023/11/16 00:48:52;;;;;;;0.50;0.50;;;;;;;6.93;98.64;97155.06;29395;233;63004;-55
2023/11/16 00:49:24;;;;;;;0.50;0.50;;;;;;;6.92;98.76;97158.81;29395;220;63009;-55
2023/11/16 00:49:57;;;;;;;0.52;0.52;;;;;;;6.89;98.43;97151.25;29395;263;63004;-55
2023/11/16 00:50:29;;;;;;;0.50;0.50;;;;;;;6.87;98.64;97146.12;29394;198;64013;-56
2023/11/16 00:51:01;;;;;;;0.50;0.50;;;;;;;6.88;98.65;97152.31;29395;413;63005;-56
2023/11/16 00:51:32;;;;;;;0.50;0.50;;;;;;;6.88;99.01;97152.31;29395;227;63009;-56
2023/11/16 00:52:04;;;;;;;0.50;0.50;;;;;;;6.88;98.53;97152.31;29395;210;63005;-56
2023/11/16 00:52:37;;;;;;;0.50;0.50;;;;;;;6.88;99.20;97145.03;29395;345;63021;-55
2023/11/16 00:53:10;;;;;;;0.50;0.50;;;;;;;6.92;99.11;97148.03;29395;226;63005;-56
2023/11/16 00:53:44;;;;;;;0.50;0.50;;;;;;;6.99;99.17;97145.88;29395;253;63009;-58
2023/11/16 00:54:15;;;;;;;0.60;0.60;;;;;;;7.01;98.38;97141.84;29395;258;63005;-56
2023/11/16 00:54:50;;;;;;;0.50;0.50;;;;;;;7.02;98.19;97148.06;29395;212;63009;-55
2023/11/16 00:55:22;;;;;;;0.50;0.50;;;;;;;6.99;98.03;97140.50;29395;283;63010;-56
2023/11/16 00:55:55;;;;;;;0.55;0.55;;;;;;;6.99;97.90;97148.56;29394;197;64013;-56
2023/11/16 00:56:27;;;;;;;0.50;0.50;;;;;;;7.00;98.36;97147.50;29395;210;63004;-55
2023/11/16 00:56:58;;;;;;;0.50;0.50;;;;;;;7.00;98.66;97150.19;29395;202;63009;-55
2023/11/16 00:57:30;;;;;;;0.50;0.50;;;;;;;7.01;98.62;97141.03;29395;341;63004;-56
2023/11/16 00:58:04;;;;;;;0.60;0.60;;;;;;;7.03;98.44;97138.88;29395;380;63008;-56
2023/11/16 00:58:38;;;;;;;0.50;0.50;;;;;;;7.09;98.27;97147.81;29395;227;63013;-56
2023/11/16 00:59:10;;;;;;;0.60;0.60;;;;;;;7.11;98.13;97141.09;29395;219;63009;-56
2023/11/16 00:59:41;;;;;;;0.50;0.50;;;;;;;7.11;98.03;97141.09;29395;517;63005;-57
2023/11/16 01:00:17;;;;;;;0.50;0.50;;;;;;;7.08;97.98;97141.59;29395;223;63009;-62
2023/11/16 01:00:51;;;;;;;0.50;0.50;;;;;;;7.06;97.96;97143.75;29395;362;63005;-57
2023/11/16 01:01:22;;;;;;;0.50;0.50;;;;;;;7.04;98.13;97140.50;29394;338;64013;-56
2023/11/16 01:01:56;;;;;;;0.50;0.50;;;;;;;7.01;97.90;97151.81;29395;260;63005;-61
2023/11/16 01:02:27;;;;;;;0.50;0.50;;;;;;;6.99;98.52;97138.59;29395;202;63020;-56
2023/11/16 01:02:59;;;;;;;0.50;0.50;;;;;;;6.99;98.40;97140.50;29395;326;63004;-56
2023/11/16 01:03:32;;;;;;;0.50;0.50;;;;;;;6.97;98.80;97140.75;29395;220;63009;-56
2023/11/16 01:04:09;;;;;;;0.50;0.50;;;;;;;6.96;98.88;97141.00;29395;382;63008;-56
2023/11/16 01:04:41;;;;;;;0.50;0.50;;;;;;;6.95;99.42;97142.91;29395;210;63009;-56
2023/11/16 01:05:13;;;;;;;0.50;0.50;;;;;;;6.95;99.54;97145.59;29395;268;63004;-55
2023/11/16 01:05:45;;;;;;;0.50;0.50;;;;;;;6.97;99.67;97134.53;29395;251;63009;-58
2023/11/16 01:06:16;;;;;;;0.50;0.50;;;;;;;6.97;99.44;97135.34;29395;211;63012;-55
2023/11/16 01:06:47;;;;;;;0.50;0.50;;;;;;;6.95;99.51;97144.78;29394;293;64014;-57
2023/11/16 01:07:19;;;;;;;0.50;0.50;;;;;;;6.94;99.64;97135.87;29395;269;63005;-56
2023/11/16 01:07:50;;;;;;;0.50;0.50;;;;;;;6.95;99.70;97137.50;29395;224;63009;-57
2023/11/16 01:08:21;;;;;;;0.50;0.50;;;;;;;6.99;99.32;97132.38;29395;202;63017;-57
2023/11/16 01:08:53;;;;;;;0.50;0.50;;;;;;;7.03;98.88;97138.88;29395;245;63009;-57
2023/11/16 01:09:24;;;;;;;0.50;0.50;;;;;;;7.03;98.45;97130.78;29395;442;63005;-55
2023/11/16 01:09:56;;;;;;;0.50;0.50;;;;;;;7.02;98.59;97131.88;29394;256;64013;-58
2023/11/16 01:10:29;;;;;;;0.50;0.50;;;;;;;7.02;98.54;97121.06;29395;221;63004;-56
2023/11/16 01:11:02;;;;;;;0.50;0.50;;;;;;;7.01;98.73;97124.84;29395;223;63009;-57
2023/11/16 01:11:36;;;;;;;0.50;0.50;;;;;;;6.99;98.39;97127.00;29395;428;63004;-56
2023/11/16 01:12:15;;;;;;;0.50;0.50;;;;;;;6.99;99.03;97125.09;29395;255;63021;-56
2023/11/16 01:12:46;;;;;;;0.50;0.50;;;;;;;6.98;98.50;97126.19;29395;228;63004;-56
2023/11/16 01:13:24;;;;;;;0.50;0.50;;;;;;;6.99;98.88;97127.00;29395;204;63009;-57
2023/11/16 01:13:56;;;;;;;0.50;0.50;;;;;;;7.09;98.10;97127.03;29395;267;63005;-56
2023/11/16 01:14:27;;;;;;;0.50;0.50;;;;;;;7.10;98.00;97122.47;29395;268;63014;-55
2023/11/16 01:14:59;;;;;;;0.50;0.50;;;;;;;7.09;97.95;97132.44;29394;406;64009;-56
2023/11/16 01:15:30;;;;;;;0.50;0.50;;;;;;;7.06;97.71;97127.56;29395;239;63009;-55
2023/11/16 01:16:03;;;;;;;0.50;0.50;;;;;;;7.02;97.98;97121.06;29395;381;63005;-56
2023/11/16 01:16:40;;;;;;;0.50;0.50;;;;;;;6.99;98.15;97122.41;29395;226;63017;-55
2023/11/16 01:17:18;;;;;;;0.50;0.50;;;;;;;6.96;98.25;97122.94;29394;249;64009;-56
2023/11/16 01:17:51;;;;;;;0.50;0.50;;;;;;;6.95;98.70;97128.59;29395;355;63009;-56
2023/11/16 01:18:26;;;;;;;0.50;0.50;;;;;;;6.95;98.59;97120.50;29395;369;63004;-56
2023/11/16 01:19:00;;;;;;;0.50;0.50;;;;;;;6.97;98.67;97129.16;29395;284;63009;-57
2023/11/16 01:19:32;;;;;;;0.50;0.50;;;;;;;6.99;98.31;97121.59;29395;214;63004;-55
2023/11/16 01:20:06;;;;;;;0.60;0.60;;;;;;;6.98;97.85;97126.19;29394;249;64013;-56
2023/11/16 01:20:39;;;;;;;0.50;0.50;;;;;;;6.97;97.86;97135.34;29395;280;63014;-57
2023/11/16 01:21:10;;;;;;;0.50;0.50;;;;;;;6.95;98.45;97132.09;29395;207;63009;-56
2023/11/16 01:21:44;;;;;;;0.50;0.50;;;;;;;6.98;98.41;97128.06;29395;199;63005;-56
2023/11/16 01:22:16;;;;;;;0.50;0.50;;;;;;;6.97;98.03;97134.53;29394;264;64014;-56
2023/11/16 01:23:09;;;;;;;0.50;0.50;;;;;;;6.96;98.07;97127.53;29395;269;63005;-66
2023/11/16 01:23:41;;;;;;;0.50;0.50;;;;;;;6.97;98.34;97134.53;29394;203;64013;-56
2023/11/16 01:24:12;;;;;;;0.50;0.50;;;;;;;6.96;98.13;97130.22;29395;377;63005;-57
2023/11/16 01:24:47;;;;;;;0.50;0.50;;;;;;;6.96;98.32;97127.53;29395;334;63009;-56
2023/11/16 01:25:21;;;;;;;0.50;0.50;;;;;;;7.04;97.62;97129.72;29395;342;63004;-55
2023/11/16 01:25:52;;;;;;;0.50;0.50;;;;;;;7.04;97.63;97125.13;29395;379;63009;-55
2023/11/16 01:26:25;;;;;;;0.50;0.50;;;;;;;7.04;97.21;97129.72;29395;200;63004;-55
2023/11/16 01:27:13;;;;;;;0.50;0.50;;;;;;;7.01;97.28;97133.75;29395;328;63009;-55
2023/11/16 01:27:45;;;;;;;0.60;0.60;;;;;;;6.99;98.15;97127.00;29394;406;64008;-55
2023/11/16 01:28:17;;;;;;;0.50;0.50;;;;;;;6.96;98.05;97127.53;29395;196;63008;-56
2023/11/16 01:29:01;;;;;;;0.50;0.50;;;;;;;6.98;98.42;97126.19;29395;357;63005;-56
2023/11/16 01:29:32;;;;;;;0.70;0.70;;;;;;;7.14;96.30;97121.66;29395;197;63009;-58
2023/11/16 01:30:05;;;;;;;0.50;0.50;;;;;;;7.16;96.03;97127.63;29394;251;64009;-54
2023/11/16 01:30:39;;;;;;;0.50;0.50;;;;;;;7.12;95.79;97131.91;29395;196;63009;-63
2023/11/16 01:31:10;;;;;;;0.50;0.50;;;;;;;7.12;95.64;97115.72;29395;354;63005;-55
2023/11/16 01:31:41;;;;;;;0.55;0.55;;;;;;;7.09;96.05;97127.03;29395;441;63016;-55
2023/11/16 01:32:13;;;;;;;0.50;0.50;;;;;;;7.06;96.10;97117.59;29395;254;63004;-56
2023/11/16 01:32:44;;;;;;;0.50;0.50;;;;;;;7.04;96.57;97118.94;29395;213;63019;-54
2023/11/16 01:33:15;;;;;;;0.50;0.50;;;;;;;7.01;96.61;97116.75;29395;232;63004;-55
2023/11/16 01:33:47;;;;;;;0.60;0.60;;;;;;;7.00;96.93;97123.22;29395;232;63009;-55
2023/11/16 01:34:18;;;;;;;0.50;0.50;;;;;;;6.99;97.15;97121.59;29395;344;63004;-63
2023/11/16 01:34:51;;;;;;;0.60;0.60;;;;;;;6.96;97.01;97112.16;29395;197;63024;-55
2023/11/16 01:35:23;;;;;;;0.50;0.50;;;;;;;6.94;97.20;97116.19;29394;252;64009;-55
2023/11/16 01:35:55;;;;;;;0.52;0.52;;;;;;;6.92;97.04;97121.06;29395;477;63009;-55
2023/11/16 01:36:27;;;;;;;0.50;0.50;;;;;;;6.94;97.90;97116.19;29395;238;63005;-55
2023/11/16 01:36:58;;;;;;;0.50;0.50;;;;;;;6.95;97.88;97124.00;29395;420;63009;-56
2023/11/16 01:37:29;;;;;;;0.50;0.50;;;;;;;6.96;97.66;97120.25;29394;376;64009;-56
2023/11/16 01:38:00;;;;;;;0.50;0.50;;;;;;;6.93;97.81;97120.00;29395;249;63009;-55
2023/11/16 01:38:32;;;;;;;0.50;0.50;;;;;;;6.93;97.34;97120.00;29395;208;63005;-65
2023/11/16 01:39:04;;;;;;;0.50;0.50;;;;;;;6.91;97.64;97124.84;29394;232;64009;-56
2023/11/16 01:39:35;;;;;;;0.50;0.50;;;;;;;6.93;97.97;97123.47;29395;462;63004;-57
2023/11/16 01:40:08;;;;;;;0.50;0.50;;;;;;;6.94;97.44;97126.97;29394;199;64013;-55
2023/11/16 01:40:40;;;;;;;0.60;0.60;;;;;;;6.94;97.17;97124.28;29395;278;63004;-56
2023/11/16 01:41:16;;;;;;;0.50;0.50;;;;;;;6.92;97.31;97121.88;29395;243;63024;-57
2023/11/16 01:41:47;;;;;;;0.50;0.50;;;;;;;6.91;97.64;97122.13;29395;247;63009;-54
2023/11/16 01:42:19;;;;;;;0.50;0.50;;;;;;;6.91;97.88;97124.84;29395;248;63017;-56
2023/11/16 01:42:50;;;;;;;0.50;0.50;;;;;;;6.87;97.89;97121.03;29395;255;63005;-55
2023/11/16 01:43:22;;;;;;;0.60;0.60;;;;;;;6.85;98.21;97124.00;29395;219;63009;-54
2023/11/16 01:43:56;;;;;;;0.50;0.50;;;;;;;6.84;98.09;97119.66;29395;395;63005;-55
2023/11/16 01:44:27;;;;;;;0.50;0.50;;;;;;;6.83;98.37;97122.63;29395;320;63022;-57
2023/11/16 01:45:02;;;;;;;0.50;0.50;;;;;;;6.86;98.65;97127.50;29395;248;63005;-55
2023/11/16 01:45:34;;;;;;;0.50;0.50;;;;;;;6.86;98.29;97122.09;29394;353;64013;-55
2023/11/16 01:46:07;;;;;;;0.50;0.50;;;;;;;6.85;98.12;97126.69;29395;376;63015;-55
2023/11/16 01:46:40;;;;;;;0.50;0.50;;;;;;;6.85;98.36;97124.00;29395;199;63009;-62
2023/11/16 01:47:14;;;;;;;0.50;0.50;;;;;;;6.85;98.26;97125.88;29395;202;63004;-56
2023/11/16 01:47:45;;;;;;;0.50;0.50;;;;;;;6.84;98.93;97124.25;29395;226;63009;-56
2023/11/16 01:48:23;;;;;;;0.50;0.50;;;;;;;6.83;98.79;97128.03;29395;205;63004;-56
2023/11/16 01:48:56;;;;;;;0.50;0.50;;;;;;;6.82;98.74;97131.78;29394;214;64013;-56
2023/11/16 01:49:28;;;;;;;0.50;0.50;;;;;;;6.81;98.92;97127.47;29395;222;63004;-55
2023/11/16 01:50:00;;;;;;;0.50;0.50;;;;;;;6.80;99.20;97133.94;29395;373;63008;-63
2023/11/16 01:50:35;;;;;;;0.50;0.50;;;;;;;6.80;99.07;97128.56;29395;199;63005;-55
2023/11/16 01:51:11;;;;;;;0.50;0.50;;;;;;;6.78;99.64;97131.50;29395;203;63009;-55
2023/11/16 01:51:45;;;;;;;0.50;0.50;;;;;;;6.80;99.50;97128.56;29395;244;63005;-56
2023/11/16 01:52:17;;;;;;;0.50;0.50;;;;;;;6.79;100.00;97132.31;29395;246;63009;-57
2023/11/16 01:52:49;;;;;;;0.50;0.50;;;;;;;6.81;100.00;97124.78;29395;344;63005;-56
2023/11/16 01:53:22;;;;;;;0.50;0.50;;;;;;;6.83;100.00;97128.03;29395;218;63009;-55
2023/11/16 01:54:00;;;;;;;0.50;0.50;;;;;;;6.83;99.46;97120.75;29394;253;64017;-56
2023/11/16 01:54:36;;;;;;;0.50;0.50;;;;;;;6.83;99.38;97123.44;29395;223;63009;-56
2023/11/16 01:55:09;;;;;;;0.50;0.50;;;;;;;6.84;99.52;97126.94;29395;247;63004;-55
2023/11/16 01:55:44;;;;;;;0.50;0.50;;;;;;;6.84;99.32;97124.25;29395;253;63009;-56
2023/11/16 01:56:16;;;;;;;0.50;0.50;;;;;;;6.85;99.86;97121.28;29395;239;63004;-56
2023/11/16 01:56:50;;;;;;;0.50;0.50;;;;;;;6.88;99.82;97131.56;29395;206;63009;-56
2023/11/16 01:57:22;;;;;;;0.50;0.50;;;;;;;6.88;99.73;97126.16;29395;218;63004;-57
2023/11/16 01:57:54;;;;;;;0.50;0.50;;;;;;;6.89;99.94;97127.78;29395;211;63009;-56
2023/11/16 01:58:25;;;;;;;0.55;0.55;;;;;;;6.92;99.43;97123.75;29395;491;63005;-56
2023/11/16 01:59:02;;;;;;;0.50;0.50;;;;;;;6.93;99.06;97125.38;29394;389;64014;-57
2023/11/16 01:59:34;;;;;;;0.50;0.50;;;;;;;6.94;98.71;97135.87;29395;392;63011;-56
2023/11/16 02:00:07;;;;;;;0.60;0.60;;;;;;;6.94;99.08;97132.38;29395;235;63009;-55
2023/11/16 02:00:42;;;;;;;0.50;0.50;;;;;;;6.92;98.73;97131.84;29395;209;63008;-56
2023/11/16 02:01:15;;;;;;;0.50;0.50;;;;;;;6.92;98.80;97134.53;29395;197;63009;-56
2023/11/16 02:01:47;;;;;;;0.50;0.50;;;;;;;6.90;99.21;97128.59;29395;202;63005;-55
2023/11/16 02:02:19;;;;;;;0.50;0.50;;;;;;;6.90;99.10;97125.91;29395;280;63009;-64
2023/11/16 02:02:52;;;;;;;0.50;0.50;;;;;;;6.91;99.51;97130.22;29395;366;63004;-56
2023/11/16 02:03:24;;;;;;;0.50;0.50;;;;;;;6.91;100.00;97125.66;29394;210;64013;-56
2023/11/16 02:03:55;;;;;;;0.50;0.50;;;;;;;6.90;99.99;97131.31;29394;232;64009;-56
2023/11/16 02:04:27;;;;;;;0.60;0.60;;;;;;;6.89;100.00;97127.78;29395;275;63008;-56
2023/11/16 02:04:59;;;;;;;0.60;0.60;;;;;;;6.88;99.94;97119.97;29395;415;63000;-55
2023/11/16 02:05:34;;;;;;;0.50;0.50;;;;;;;6.87;100.00;97123.72;29395;282;63009;-62
2023/11/16 02:06:08;;;;;;;0.50;0.50;;;;;;;6.85;100.00;97131.28;29395;237;63005;-56
2023/11/16 02:06:40;;;;;;;0.60;0.60;;;;;;;6.83;100.00;97134.22;29395;257;63009;-56
2023/11/16 02:07:15;;;;;;;0.50;0.50;;;;;;;6.82;100.00;97126.41;29395;309;63005;-56
2023/11/16 02:07:46;;;;;;;0.50;0.50;;;;;;;6.80;100.00;97129.34;29395;202;63009;-58
2023/11/16 02:08:18;;;;;;;0.60;0.60;;;;;;;6.80;100.00;97126.66;29394;260;64005;-56
2023/11/16 02:08:51;;;;;;;0.50;0.50;;;;;;;6.80;100.00;97132.06;29395;246;63009;-56
2023/11/16 02:09:22;;;;;;;0.50;0.50;;;;;;;6.80;100.00;97128.56;29394;218;64009;-57
2023/11/16 02:09:53;;;;;;;0.50;0.50;;;;;;;6.82;100.00;97127.22;29395;520;63009;-57
2023/11/16 02:10:25;;;;;;;0.50;0.50;;;;;;;6.82;100.00;97129.09;29395;199;63004;-56
2023/11/16 02:10:56;;;;;;;0.60;0.60;;;;;;;6.83;100.00;97128.84;29395;223;63009;-56
2023/11/16 02:11:28;;;;;;;0.60;0.60;;;;;;;6.84;100.00;97129.66;29395;241;63004;-55
2023/11/16 02:12:00;;;;;;;0.60;0.60;;;;;;;6.83;100.00;97136.13;29395;217;63008;-56
2023/11/16 02:12:31;;;;;;;0.50;0.50;;;;;;;6.80;100.00;97123.16;29395;220;63008;-55
2023/11/16 02:13:05;;;;;;;0.50;0.50;;;;;;;6.79;100.00;97132.31;29395;200;63009;-56
2023/11/16 02:13:37;;;;;;;0.50;0.50;;;;;;;6.77;100.00;97129.88;29395;415;63005;-55
2023/11/16 02:14:10;;;;;;;0.50;0.50;;;;;;;6.73;100.00;97126.91;29395;255;63009;-62
2023/11/16 02:14:42;;;;;;;0.50;0.50;;;;;;;6.72;100.00;97130.66;29394;232;64018;-55
2023/11/16 02:15:13;;;;;;;0.60;0.60;;;;;;;6.70;100.00;97127.41;29395;247;63016;-55
2023/11/16 02:15:46;;;;;;;0.60;0.60;;;;;;;6.68;100.00;97126.06;29395;206;63005;-55
2023/11/16 02:16:17;;;;;;;0.60;0.60;;;;;;;6.66;100.00;97123.62;29395;378;63009;-56
2023/11/16 02:16:49;;;;;;;0.60;0.60;;;;;;;6.68;100.00;97120.66;29395;337;63005;-55
2023/11/16 02:17:21;;;;;;;0.60;0.60;;;;;;;6.68;100.00;97126.06;29395;457;63009;-62
2023/11/16 02:17:52;;;;;;;0.50;0.50;;;;;;;6.66;100.00;97120.91;29395;204;63004;-56
2023/11/16 02:18:25;;;;;;;0.50;0.50;;;;;;;6.65;100.00;97122.00;29395;202;63009;-56
2023/11/16 02:18:57;;;;;;;0.60;0.60;;;;;;;6.65;100.00;97115.78;29395;271;63004;-56
2023/11/16 02:19:31;;;;;;;0.50;0.50;;;;;;;6.63;100.00;97116.06;29395;203;63009;-62
2023/11/16 02:20:06;;;;;;;0.60;0.60;;;;;;;6.60;100.00;97124.66;29394;401;64008;-56
2023/11/16 02:20:41;;;;;;;0.50;0.50;;;;;;;6.58;100.00;97121.44;29395;222;63019;-55
2023/11/16 02:21:12;;;;;;;0.60;0.60;;;;;;;6.56;100.00;97118.19;29395;247;63017;-55
2023/11/16 02:21:45;;;;;;;0.50;0.50;;;;;;;6.57;100.00;97121.69;29395;219;63009;-63
2023/11/16 02:22:19;;;;;;;0.50;0.50;;;;;;;6.56;100.00;97117.38;29395;215;63005;-55
2023/11/16 02:22:54;;;;;;;0.50;0.50;;;;;;;6.54;100.00;97123.03;29395;204;63009;-56
2023/11/16 02:23:25;;;;;;;0.50;0.50;;;;;;;6.52;100.00;97118.97;29395;286;63005;-62
2023/11/16 02:23:58;;;;;;;0.50;0.50;;;;;;;6.50;100.00;97129.19;29395;491;63009;-56
2023/11/16 02:24:30;;;;;;;0.60;0.60;;;;;;;6.49;100.00;97122.19;29395;202;63004;-56
2023/11/16 02:25:05;;;;;;;0.50;0.50;;;;;;;6.47;100.00;97122.44;29395;261;63025;-56
2023/11/16 02:25:47;;;;;;;0.60;0.60;;;;;;;6.46;100.00;97118.13;29394;202;64009;-56
2023/11/16 02:26:19;;;;;;;0.60;0.60;;;;;;;6.47;100.00;97119.75;29395;196;63008;-55
2023/11/16 02:26:51;;;;;;;0.60;0.60;;;;;;;6.46;100.00;97122.72;29395;241;63004;-56
2023/11/16 02:27:22;;;;;;;0.60;0.60;;;;;;;6.46;100.00;97125.41;29395;228;63008;-55
2023/11/16 02:27:54;;;;;;;0.60;0.60;;;;;;;6.44;100.00;97120.28;29395;394;63004;-62
2023/11/16 02:28:27;;;;;;;0.50;0.50;;;;;;;6.45;100.00;97116.50;29395;245;63024;-56
2023/11/16 02:28:58;;;;;;;0.50;0.50;;;;;;;6.45;100.00;97116.50;29395;289;63005;-56
2023/11/16 02:29:30;;;;;;;0.60;0.60;;;;;;;6.46;100.00;97117.31;29395;231;63015;-55
2023/11/16 02:30:01;;;;;;;0.50;0.50;;;;;;;6.46;100.00;97117.31;29395;258;63005;-56
2023/11/16 02:30:32;;;;;;;0.57;0.57;;;;;;;6.47;100.00;97119.75;29395;207;63009;-55
2023/11/16 02:31:04;;;;;;;0.50;0.50;;;;;;;6.50;100.00;97119.22;29394;415;64009;-55
2023/11/16 02:31:36;;;;;;;0.50;0.50;;;;;;;6.50;100.00;97108.44;29395;273;63009;-56
2023/11/16 02:32:07;;;;;;;0.52;0.52;;;;;;;6.51;100.00;97112.78;29395;539;63004;-55
2023/11/16 02:32:39;;;;;;;0.50;0.50;;;;;;;6.50;100.00;97110.34;29395;251;63009;-56
2023/11/16 02:33:12;;;;;;;0.50;0.50;;;;;;;6.48;100.00;97113.28;29395;203;63004;-56
2023/11/16 02:33:43;;;;;;;0.50;0.50;;;;;;;6.46;100.00;97114.63;29395;252;63009;-56
2023/11/16 02:34:14;;;;;;;0.50;0.50;;;;;;;6.45;100.00;97110.31;29395;221;63004;-56
2023/11/16 02:34:47;;;;;;;0.50;0.50;;;;;;;6.44;100.00;97114.88;29395;219;63009;-56
2023/11/16 02:35:18;;;;;;;0.60;0.60;;;;;;;6.45;100.00;97108.41;29395;230;63005;-56
2023/11/16 02:35:52;;;;;;;0.50;0.50;;;;;;;6.45;100.00;97115.69;29395;354;63021;-57
2023/11/16 02:36:23;;;;;;;0.50;0.50;;;;;;;6.44;100.00;97109.50;29394;197;63999;-55